Time;durP1;ratioP1;P1;durP2;ratioP2;P2;SDS_P1;SDS_P2;PMS_P1;PMS_P2;Temp;Humidity;BMP_temperature;BMP_pressure;BME280_temperature;BME280_humidity;BME280_pressure;Samples;Min_cycle;Max_cycle;Signal;HPM_P1;HPM_P2
2021/11/04 00:01:14;;;;;;;;;51.25;41.00;;;;;-149.00;100.00;66333.84;5139504;27;8781;-79
2021/11/04 00:03:40;;;;;;;;;52.00;42.00;;;;;-149.00;100.00;66333.84;5139815;27;8820;-82
2021/11/04 00:06:05;;;;;;;;;50.25;42.25;;;;;-149.00;100.00;66333.84;5139948;27;8780;-82
2021/11/04 00:08:30;;;;;;;;;48.50;41.25;;;;;-149.00;100.00;66333.84;5140697;27;8784;-82
2021/11/04 00:10:56;;;;;;;;;50.50;43.50;;;;;-149.00;100.00;66333.84;5141580;27;8769;-81
2021/11/04 00:13:23;;;;;;;;;52.75;43.25;;;;;-149.00;100.00;66333.84;5141427;27;9547;-82
2021/11/04 00:15:49;;;;;;;;;48.00;40.00;;;;;-149.00;100.00;66333.84;5139161;27;8796;-80
2021/11/04 00:18:14;;;;;;;;;47.75;40.50;;;;;-149.00;100.00;66333.84;5139464;27;10775;-80
2021/11/04 00:20:39;;;;;;;;;43.25;38.25;;;;;-149.00;100.00;66333.84;5137887;27;8935;-80
2021/11/04 00:23:05;;;;;;;;;42.25;37.75;;;;;-149.00;100.00;66333.84;5138997;27;8809;-80
2021/11/04 00:25:31;;;;;;;;;47.50;41.00;;;;;-149.00;100.00;66333.84;5139224;27;9551;-80
2021/11/04 00:27:56;;;;;;;;;51.50;43.00;;;;;-149.00;100.00;66333.84;5139289;27;8780;-80
2021/11/04 00:30:22;;;;;;;;;46.50;40.50;;;;;-149.00;100.00;66333.84;5147712;27;8802;-80
2021/11/04 00:32:51;;;;;;;;;49.50;40.50;;;;;-149.00;100.00;66333.84;5158719;27;8707;-80
2021/11/04 00:35:17;;;;;;;;;46.75;40.00;;;;;-149.00;100.00;66333.84;5158506;27;10759;-80
2021/11/04 00:37:43;;;;;;;;;56.75;45.00;;;;;-149.00;100.00;66333.84;5158042;27;10797;-80
2021/11/04 00:40:11;;;;;;;;;48.50;41.50;;;;;-149.00;100.00;66333.84;5160923;27;11117;-82
2021/11/04 00:42:36;;;;;;;;;53.00;42.25;;;;;-149.00;100.00;66333.84;5160810;27;11501;-82
2021/11/04 00:45:02;;;;;;;;;53.75;43.00;;;;;-149.00;100.00;66333.84;5159394;27;10925;-82
2021/11/04 00:47:28;;;;;;;;;49.75;41.75;;;;;-149.00;100.00;66333.84;5160737;27;8761;-82
2021/11/04 00:49:53;;;;;;;;;41.50;36.75;;;;;-149.00;100.00;66333.84;5159665;27;10961;-82
2021/11/04 00:52:19;;;;;;;;;46.25;39.50;;;;;-149.00;100.00;66333.84;5157862;27;8802;-80
2021/11/04 00:54:44;;;;;;;;;45.50;38.25;;;;;-149.00;100.00;66333.84;5159473;27;8862;-80
2021/11/04 00:57:09;;;;;;;;;50.25;40.00;;;;;-149.00;100.00;66333.84;5159484;27;8828;-80
2021/11/04 00:59:35;;;;;;;;;42.00;38.25;;;;;-149.00;100.00;66333.84;5159491;27;8840;-80
2021/11/04 01:02:00;;;;;;;;;39.00;35.25;;;;;-149.00;100.00;66333.84;5159262;27;8822;-80
2021/11/04 01:04:25;;;;;;;;;40.50;36.00;;;;;-149.00;100.00;66333.84;5159277;27;8998;-80
2021/11/04 01:06:51;;;;;;;;;44.00;37.75;;;;;-149.00;100.00;66333.84;5159185;27;8774;-80
2021/11/04 01:09:17;;;;;;;;;45.00;37.00;;;;;-149.00;100.00;66333.84;5157709;27;8782;-83
2021/11/04 01:11:42;;;;;;;;;41.00;37.50;;;;;-149.00;100.00;66333.84;5159343;27;8900;-82
2021/11/04 01:14:07;;;;;;;;;45.50;38.50;;;;;-149.00;100.00;66333.84;5158380;27;8904;-82
2021/11/04 01:16:33;;;;;;;;;46.75;39.50;;;;;-149.00;100.00;66333.84;5159644;27;8805;-82
2021/11/04 01:18:58;;;;;;;;;42.25;37.75;;;;;-149.00;100.00;66333.84;5159613;27;8796;-82
2021/11/04 01:21:24;;;;;;;;;45.75;37.25;;;;;-149.00;100.00;66333.84;5159226;27;8817;-80
2021/11/04 01:23:49;;;;;;;;;49.75;38.75;;;;;-149.00;100.00;66333.84;5158736;27;8813;-80
2021/11/04 01:26:15;;;;;;;;;42.00;36.25;;;;;-149.00;100.00;66333.84;5157657;27;8852;-80
2021/11/04 01:28:40;;;;;;;;;49.75;41.25;;;;;-149.00;100.00;66333.84;5157650;27;8843;-80
2021/11/04 01:31:06;;;;;;;;;42.25;36.25;;;;;-149.00;100.00;66333.84;5143379;27;8839;-79
2021/11/04 01:33:31;;;;;;;;;39.00;36.00;;;;;-149.00;100.00;66333.84;5136700;27;8812;-79
2021/11/04 01:35:57;;;;;;;;;47.25;36.75;;;;;-149.00;100.00;66333.84;5136729;27;9060;-79
2021/11/04 01:38:22;;;;;;;;;41.00;37.50;;;;;-149.00;100.00;66333.84;5136430;27;8980;-82
2021/11/04 01:40:48;;;;;;;;;42.25;37.25;;;;;-149.00;100.00;66333.84;5136944;27;9574;-82
2021/11/04 01:43:14;;;;;;;;;41.00;36.00;;;;;-149.00;100.00;66333.84;5138024;27;8845;-82
2021/11/04 01:45:40;;;;;;;;;42.75;37.25;;;;;-149.00;100.00;66333.84;5138351;27;8795;-82
2021/11/04 01:48:05;;;;;;;;;48.50;41.00;;;;;-149.00;100.00;66333.84;5137785;27;8788;-82
2021/11/04 01:50:32;;;;;;;;;46.25;40.00;;;;;-149.00;100.00;66333.84;5137421;27;8803;-80
2021/11/04 01:52:57;;;;;;;;;46.00;40.25;;;;;-149.00;100.00;66333.84;5137589;27;11507;-81
2021/11/04 01:55:25;;;;;;;;;51.25;40.00;;;;;-149.00;100.00;66333.84;5136248;27;10637;-80
2021/11/04 01:57:52;;;;;;;;;41.25;37.50;;;;;-149.00;100.00;66333.84;5137883;27;8866;-79
2021/11/04 02:00:23;;;;;;;;;39.00;35.75;;;;;-149.00;100.00;66333.84;5136499;27;10553;-80
2021/11/04 02:03:15;;;;;;;;;34.50;33.75;;;;;-149.00;100.00;66333.84;5137411;27;11474;-79
2021/11/04 02:05:56;;;;;;;;;45.00;37.75;;;;;-149.00;100.00;66333.84;5136100;27;10369;-79
2021/11/04 02:08:36;;;;;;;;;44.75;37.75;;;;;-149.00;100.00;66333.84;5137311;27;10509;-82
2021/11/04 02:11:10;;;;;;;;;45.25;38.50;;;;;-149.00;100.00;66333.84;5137572;27;10419;-82
2021/11/04 02:13:45;;;;;;;;;47.50;40.25;;;;;-149.00;100.00;66333.84;5137530;27;10591;-82
2021/11/04 02:16:12;;;;;;;;;57.00;44.75;;;;;-149.00;100.00;66333.84;5135999;27;11551;-82
2021/11/04 02:18:39;;;;;;;;;43.50;37.00;;;;;-149.00;100.00;66333.84;5137412;27;10939;-82
2021/11/04 02:21:11;;;;;;;;;48.00;40.25;;;;;-149.00;100.00;66333.84;5137474;27;10758;-79
2021/11/04 02:24:21;;;;;;;;;47.75;39.25;;;;;-149.00;100.00;66333.84;5137173;27;10788;-80
2021/11/04 02:26:48;;;;;;;;;50.00;40.25;;;;;-149.00;100.00;66333.84;5094095;28;10752;-80
2021/11/04 02:29:16;;;;;;;;;41.00;36.75;;;;;-149.00;100.00;66333.84;5094114;28;10678;-80
2021/11/04 02:31:42;;;;;;;;;47.50;40.00;;;;;-149.00;100.00;66333.84;5111029;27;10870;-79
2021/11/04 02:34:08;;;;;;;;;43.75;38.00;;;;;-149.00;100.00;66333.84;5116702;27;10795;-79
2021/11/04 02:36:34;;;;;;;;;41.75;36.25;;;;;-149.00;100.00;66333.84;5115276;27;10658;-82
2021/11/04 02:39:01;;;;;;;;;45.00;38.25;;;;;-149.00;100.00;66333.84;5115158;27;8799;-82
2021/11/04 02:41:30;;;;;;;;;44.00;37.25;;;;;-149.00;100.00;66333.84;5116588;27;10516;-82
2021/11/04 02:43:56;;;;;;;;;42.50;36.75;;;;;-149.00;100.00;66333.84;5116411;27;10464;-82
2021/11/04 02:46:22;;;;;;;;;23.00;19.50;;;;;-149.00;100.00;66333.84;5116596;27;10475;-82
2021/11/04 02:48:47;;;;;;;;;40.75;35.25;;;;;-149.00;100.00;66333.84;5116601;27;10577;-82
2021/11/04 02:51:13;;;;;;;;;38.50;35.25;;;;;-149.00;100.00;66333.84;5114995;27;8819;-79
2021/11/04 02:53:45;;;;;;;;;35.00;33.25;;;;;-149.00;100.00;66333.84;5118039;27;9515;-79
2021/11/04 02:56:10;;;;;;;;;41.50;36.00;;;;;-149.00;100.00;66333.84;5120193;27;8751;-79
2021/11/04 02:58:36;;;;;;;;;41.75;36.25;;;;;-149.00;100.00;66333.84;5120055;27;10543;-79
2021/11/04 03:01:05;;;;;;;;;40.25;36.25;;;;;-149.00;100.00;66333.84;5118407;28;8826;-79
2021/11/04 03:03:30;;;;;;;;;45.50;37.25;;;;;-149.00;100.00;66333.84;5119882;27;8795;-79
2021/11/04 03:05:57;;;;;;;;;42.75;37.50;;;;;-149.00;100.00;66333.84;5119864;27;10685;-82
2021/11/04 03:08:25;;;;;;;;;39.75;36.25;;;;;-149.00;100.00;66333.84;5118234;27;8869;-82
2021/11/04 03:10:51;;;;;;;;;49.50;40.75;;;;;-149.00;100.00;66333.84;5119928;27;10682;-82
2021/11/04 03:13:16;;;;;;;;;51.50;42.00;;;;;-149.00;100.00;66333.84;5118421;28;10910;-82
2021/11/04 03:15:56;;;;;;;;;46.50;38.75;;;;;-149.00;100.00;66333.84;5119732;27;10755;-82
2021/11/04 03:18:24;;;;;;;;;55.50;44.75;;;;;-149.00;100.00;66333.84;5119842;27;8807;-82
2021/11/04 03:20:52;;;;;;;;;42.75;38.25;;;;;-149.00;100.00;66333.84;5119683;27;10741;-81
2021/11/04 03:23:17;;;;;;;;;42.00;37.25;;;;;-149.00;100.00;66333.84;5117813;27;10791;-82
2021/11/04 03:25:46;;;;;;;;;38.75;35.00;;;;;-149.00;100.00;66333.84;5119900;27;10896;-82
2021/11/04 03:28:12;;;;;;;;;40.00;35.25;;;;;-149.00;100.00;66333.84;5120238;27;8759;-82
2021/11/04 03:30:40;;;;;;;;;33.75;31.25;;;;;-149.00;100.00;66333.84;5142508;27;10340;-82
2021/11/04 03:33:09;;;;;;;;;35.50;34.50;;;;;-149.00;100.00;66333.84;5161331;27;10166;-82
2021/11/04 03:35:36;;;;;;;;;33.00;29.50;;;;;-149.00;100.00;66333.84;5159391;27;10175;-80
2021/11/04 03:38:07;;;;;;;;;39.75;36.50;;;;;-149.00;100.00;66333.84;5160627;27;9969;-80
2021/11/04 03:40:33;;;;;;;;;36.00;34.00;;;;;-149.00;100.00;66333.84;5159302;27;10348;-80
2021/11/04 03:42:59;;;;;;;;;41.75;34.75;;;;;-149.00;100.00;66333.84;5160693;27;10255;-80
2021/11/04 03:45:26;;;;;;;;;38.00;34.00;;;;;-149.00;100.00;66333.84;5160656;27;10447;-80
2021/11/04 03:47:52;;;;;;;;;32.75;31.00;;;;;-149.00;100.00;66333.84;5160528;27;11452;-79
2021/11/04 03:50:19;;;;;;;;;39.75;34.00;;;;;-149.00;100.00;66333.84;5160745;27;10111;-80
2021/11/04 03:52:45;;;;;;;;;32.50;32.50;;;;;-149.00;100.00;66333.84;5160310;27;10183;-82
2021/11/04 03:55:12;;;;;;;;;30.50;30.25;;;;;-149.00;100.00;66333.84;5160328;27;10181;-82
2021/11/04 03:57:41;;;;;;;;;33.25;29.75;;;;;-149.00;100.00;66333.84;5160535;27;9998;-82
2021/11/04 04:00:09;;;;;;;;;32.50;30.75;;;;;-149.00;100.00;66333.84;5159630;27;11148;-82
2021/11/04 04:02:35;;;;;;;;;25.75;23.25;;;;;-149.00;100.00;66333.84;5160863;27;10142;-82
2021/11/04 04:05:00;;;;;;;;;26.25;25.00;;;;;-149.00;100.00;66333.84;5160067;27;10063;-80
2021/11/04 04:07:30;;;;;;;;;30.75;28.75;;;;;-149.00;100.00;66333.84;5158531;27;9318;-80
2021/11/04 04:09:57;;;;;;;;;29.00;27.50;;;;;-149.00;100.00;66333.84;5160447;27;8750;-80
2021/11/04 04:12:22;;;;;;;;;27.75;27.25;;;;;-149.00;100.00;66333.84;5158933;27;9946;-80
2021/11/04 04:14:48;;;;;;;;;31.50;28.25;;;;;-149.00;100.00;66333.84;5160445;27;10042;-80
2021/11/04 04:17:14;;;;;;;;;27.50;27.50;;;;;-149.00;100.00;66333.84;5160257;27;8786;-80
2021/11/04 04:19:39;;;;;;;;;29.75;27.00;;;;;-149.00;100.00;66333.84;5160123;27;9838;-80
2021/11/04 04:22:05;;;;;;;;;29.50;26.50;;;;;-149.00;100.00;66333.84;5158729;27;8841;-82
2021/11/04 04:24:31;;;;;;;;;28.25;27.50;;;;;-149.00;100.00;66333.84;5159891;27;8904;-82
2021/11/04 04:26:57;;;;;;;;;30.75;29.50;;;;;-149.00;100.00;66333.84;5160050;27;8766;-82
2021/11/04 04:29:22;;;;;;;;;40.00;36.00;;;;;-149.00;100.00;66333.84;5159319;27;9804;-82
2021/11/04 04:31:47;;;;;;;;;33.00;32.75;;;;;-149.00;100.00;66333.84;5138367;27;8915;-82
2021/11/04 04:34:13;;;;;;;;;36.25;33.75;;;;;-149.00;100.00;66333.84;5140028;27;8850;-81
2021/11/04 04:36:38;;;;;;;;;40.25;36.25;;;;;-149.00;100.00;66333.84;5139031;27;8819;-79
2021/11/04 04:39:05;;;;;;;;;42.25;31.25;;;;;-149.00;100.00;66333.84;5138913;27;8789;-80
2021/11/04 04:41:30;;;;;;;;;35.50;33.50;;;;;-149.00;100.00;66333.84;5139200;27;8717;-80
2021/11/04 04:43:56;;;;;;;;;31.50;31.50;;;;;-149.00;100.00;66333.84;5137586;27;10592;-80
2021/11/04 04:46:21;;;;;;;;;36.00;33.00;;;;;-149.00;100.00;66333.84;5139012;27;8784;-80
2021/11/04 04:48:48;;;;;;;;;36.00;35.00;;;;;-149.00;100.00;66333.84;5138990;27;8857;-79
2021/11/04 04:51:14;;;;;;;;;33.50;32.25;;;;;-149.00;100.00;66333.84;5138858;27;8714;-82
2021/11/04 04:53:39;;;;;;;;;40.75;34.25;;;;;-149.00;100.00;66333.84;5138547;27;10196;-82
2021/11/04 04:56:05;;;;;;;;;34.75;32.00;;;;;-149.00;100.00;66333.84;5138705;27;10210;-82
2021/11/04 04:58:30;;;;;;;;;29.25;27.75;;;;;-149.00;100.00;66333.84;5138643;27;8776;-82
2021/11/04 05:00:56;;;;;;;;;32.25;29.25;;;;;-149.00;100.00;66333.84;5137007;27;8777;-82
2021/11/04 05:03:21;;;;;;;;;31.50;28.00;;;;;-149.00;100.00;66333.84;5138589;27;9560;-82
2021/11/04 05:05:47;;;;;;;;;26.25;26.25;;;;;-149.00;100.00;66333.84;5137521;27;8854;-79
2021/11/04 05:08:12;;;;;;;;;32.75;31.00;;;;;-149.00;100.00;66333.84;5138196;27;8876;-78
2021/11/04 05:10:38;;;;;;;;;32.25;31.75;;;;;-149.00;100.00;66333.84;5138626;27;8808;-79
2021/11/04 05:13:03;;;;;;;;;27.50;26.50;;;;;-149.00;100.00;66333.84;5137173;27;8881;-79
2021/11/04 05:15:29;;;;;;;;;25.50;24.25;;;;;-149.00;100.00;66333.84;5137175;27;8795;-79
2021/11/04 05:17:54;;;;;;;;;28.50;27.75;;;;;-149.00;100.00;66333.84;5138395;27;8804;-79
2021/11/04 05:20:20;;;;;;;;;30.00;27.50;;;;;-149.00;100.00;66333.84;5137004;27;8788;-81
2021/11/04 05:22:45;;;;;;;;;26.75;26.75;;;;;-149.00;100.00;66333.84;5136700;27;8876;-81
2021/11/04 05:25:11;;;;;;;;;29.50;28.00;;;;;-149.00;100.00;66333.84;5137167;27;8803;-81
2021/11/04 05:27:37;;;;;;;;;25.00;24.25;;;;;-149.00;100.00;66333.84;5139661;27;8811;-81
2021/11/04 05:30:05;;;;;;;;;32.50;29.50;;;;;-149.00;100.00;66333.84;5141253;27;8776;-81
2021/11/04 05:32:30;;;;;;;;;31.50;31.50;;;;;-149.00;100.00;66333.84;5140088;27;9832;-80
2021/11/04 05:34:56;;;;;;;;;29.00;27.25;;;;;-149.00;100.00;66333.84;5138818;27;9723;-79
2021/11/04 05:37:21;;;;;;;;;31.75;29.50;;;;;-149.00;100.00;66333.84;5136409;27;8808;-79
2021/11/04 05:39:46;;;;;;;;;29.50;29.50;;;;;-149.00;100.00;66333.84;5138204;27;8788;-79
2021/11/04 05:42:12;;;;;;;;;26.00;23.50;;;;;-149.00;100.00;66333.84;5137036;27;9621;-79
2021/11/04 05:44:37;;;;;;;;;32.50;30.25;;;;;-149.00;100.00;66333.84;5136836;27;9578;-79
2021/11/04 05:47:05;;;;;;;;;30.50;29.00;;;;;-149.00;100.00;66333.84;5139925;27;9622;-79
2021/11/04 05:49:30;;;;;;;;;24.25;24.25;;;;;-149.00;100.00;66333.84;5141306;27;8701;-81
2021/11/04 05:51:56;;;;;;;;;30.25;29.25;;;;;-149.00;100.00;66333.84;5141345;27;9790;-80
2021/11/04 05:54:21;;;;;;;;;29.25;26.75;;;;;-149.00;100.00;66333.84;5141198;27;8875;-80
2021/11/04 05:56:47;;;;;;;;;32.00;27.75;;;;;-149.00;100.00;66333.84;5141982;27;8768;-81
2021/11/04 05:59:12;;;;;;;;;28.00;26.00;;;;;-149.00;100.00;66333.84;5142057;27;8781;-80
2021/11/04 06:01:38;;;;;;;;;28.50;28.50;;;;;-149.00;100.00;66333.84;5141210;27;8776;-81
2021/11/04 06:04:04;;;;;;;;;34.25;31.50;;;;;-149.00;100.00;66333.84;5144138;27;8816;-78
2021/11/04 06:06:29;;;;;;;;;28.00;26.00;;;;;-149.00;100.00;66333.84;5138962;27;8731;-79
2021/11/04 06:08:55;;;;;;;;;32.00;29.75;;;;;-149.00;100.00;66333.84;5138270;27;10352;-78
2021/11/04 06:11:20;;;;;;;;;30.50;29.00;;;;;-149.00;100.00;66333.84;5137792;27;8803;-78
2021/11/04 06:13:45;;;;;;;;;27.00;26.67;;;;;-149.00;100.00;66333.84;5137602;27;8811;-79
2021/11/04 06:16:14;;;;;;;;;33.75;30.75;;;;;-149.00;100.00;66333.84;5136721;27;8811;-79
2021/11/04 06:18:41;;;;;;;;;37.25;32.50;;;;;-149.00;100.00;66333.84;5137653;27;8775;-78
2021/11/04 06:21:07;;;;;;;;;36.50;33.25;;;;;-149.00;100.00;66333.84;5153583;27;9890;-78
2021/11/04 06:23:33;;;;;;;;;29.75;28.50;;;;;-149.00;100.00;66333.84;5115136;27;11049;-80
2021/11/04 06:25:58;;;;;;;;;36.50;32.75;;;;;-149.00;100.00;66333.84;5124686;27;9945;-81
2021/11/04 06:28:23;;;;;;;;;31.00;28.50;;;;;-149.00;100.00;66333.84;5128726;27;8805;-81
2021/11/04 06:30:49;;;;;;;;;29.25;29.00;;;;;-149.00;100.00;66333.84;5121745;27;9534;-77
2021/11/04 06:33:14;;;;;;;;;28.50;28.25;;;;;-149.00;100.00;66333.84;5116674;28;8821;-78
2021/11/04 06:35:40;;;;;;;;;32.50;30.00;;;;;-149.00;100.00;66333.84;5116786;28;8779;-77
2021/11/04 06:38:06;;;;;;;;;30.00;27.50;;;;;-149.00;100.00;66333.84;5116373;28;8771;-75
2021/11/04 06:40:32;;;;;;;;;31.75;29.00;;;;;-149.00;100.00;66333.84;5116729;28;8793;-76
2021/11/04 06:42:57;;;;;;;;;33.50;30.50;;;;;-149.00;100.00;66333.84;5115280;28;9660;-76
2021/11/04 06:45:23;;;;;;;;;31.75;30.75;;;;;-149.00;100.00;66333.84;5116542;28;8787;-76
2021/11/04 06:47:52;;;;;;;;;38.50;32.25;;;;;-149.00;100.00;66333.84;5115232;28;8807;-76
2021/11/04 06:50:30;;;;;;;;;30.25;29.75;;;;;-149.00;100.00;66333.84;5116619;28;8785;-78
2021/11/04 06:53:06;;;;;;;;;38.00;32.50;;;;;-149.00;100.00;66333.84;5114694;28;9571;-79
2021/11/04 06:55:32;;;;;;;;;34.25;32.75;;;;;-149.00;100.00;66333.84;5114848;28;9869;-78
2021/11/04 06:58:01;;;;;;;;;37.50;35.00;;;;;-149.00;100.00;66333.84;5116390;27;9657;-80
2021/11/04 07:00:29;;;;;;;;;34.50;31.50;;;;;-149.00;100.00;66333.84;5116158;27;9783;-80
2021/11/04 07:03:06;;;;;;;;;33.00;32.25;;;;;-149.00;100.00;66333.84;5114709;27;9668;-80
2021/11/04 07:05:32;;;;;;;;;32.50;30.00;;;;;-149.00;100.00;66333.84;5116039;27;9907;-81
2021/11/04 07:08:00;;;;;;;;;27.75;27.00;;;;;-149.00;100.00;66333.84;5114322;28;9725;-81
2021/11/04 07:10:25;;;;;;;;;34.50;31.25;;;;;-149.00;100.00;66333.84;5116261;27;9644;-81
2021/11/04 07:12:51;;;;;;;;;33.00;31.25;;;;;-149.00;100.00;66333.84;5116166;27;9799;-80
2021/11/04 07:15:19;;;;;;;;;31.00;29.25;;;;;-149.00;100.00;66333.84;5114658;28;8807;-79
2021/11/04 07:17:45;;;;;;;;;29.00;27.75;;;;;-149.00;100.00;66333.84;5115935;28;8775;-81
2021/11/04 07:20:13;;;;;;;;;30.00;28.33;;;;;-149.00;100.00;66333.84;5116053;27;9670;-81
2021/11/04 07:22:52;;;;;;;;;27.00;25.67;;;;;-149.00;100.00;66333.84;5114542;28;9548;-81
2021/11/04 07:25:21;;;;;;;;;32.75;31.50;;;;;-149.00;100.00;66333.84;5114686;28;9273;-81
2021/11/04 07:27:55;;;;;;;;;24.00;23.00;;;;;-149.00;100.00;66333.84;5114621;27;9729;-81
2021/11/04 07:30:22;;;;;;;;;28.00;24.67;;;;;-149.00;100.00;66333.84;5133940;27;9388;-83
2021/11/04 07:32:52;;;;;;;;;24.33;24.33;;;;;-149.00;100.00;66333.84;5157246;27;9411;-79
2021/11/04 07:35:24;;;;;;;;;31.00;30.50;;;;;-149.00;100.00;66333.84;5155797;27;9491;-80
2021/11/04 07:37:49;;;;;;;;;31.75;28.25;;;;;-149.00;100.00;66333.84;5155458;27;9547;-78
2021/11/04 07:40:17;;;;;;;;;32.25;29.25;;;;;-149.00;100.00;66333.84;5159782;27;9576;-79
2021/11/04 07:42:43;;;;;;;;;30.33;27.67;;;;;-149.00;100.00;66333.84;5159522;27;8815;-79
2021/11/04 07:45:10;;;;;;;;;30.00;28.67;;;;;-149.00;100.00;66333.84;5159223;27;9416;-79
2021/11/04 07:47:39;;;;;;;;;28.50;26.75;;;;;-149.00;100.00;66333.84;5160632;27;9459;-80
2021/11/04 07:50:07;;;;;;;;;28.00;27.00;;;;;-149.00;100.00;66333.84;5160581;27;9922;-79
2021/11/04 07:52:33;;;;;;;;;28.00;28.00;;;;;-149.00;100.00;66333.84;5160314;27;9391;-79
2021/11/04 07:55:01;;;;;;;;;27.50;27.50;;;;;-149.00;100.00;66333.84;5160536;27;9595;-79
2021/11/04 07:57:27;;;;;;;;;24.00;24.00;;;;;-149.00;100.00;66333.84;5159137;27;8774;-79
2021/11/04 07:59:53;;;;;;;;;30.00;30.00;;;;;-149.00;100.00;66333.84;5160537;27;9302;-78
2021/11/04 08:02:18;;;;;;;;;27.33;27.33;;;;;-149.00;100.00;66333.84;5158814;27;9604;-78
2021/11/04 08:04:43;;;;;;;;;31.67;28.67;;;;;-149.00;100.00;66333.84;5159205;27;8943;-78
2021/11/04 08:07:09;;;;;;;;;27.00;25.25;;;;;-149.00;100.00;66333.84;5160115;27;8797;-77
2021/11/04 08:09:34;;;;;;;;;29.33;29.33;;;;;-149.00;100.00;66333.84;5160434;27;8786;-77
2021/11/04 08:12:00;;;;;;;;;27.50;27.00;;;;;-149.00;100.00;66333.84;5160483;27;8762;-79
2021/11/04 08:14:25;;;;;;;;;30.67;26.00;;;;;-149.00;100.00;66333.84;5160259;27;8821;-77
2021/11/04 08:16:50;;;;;;;;;30.50;28.00;;;;;-149.00;100.00;66333.84;5160442;27;8769;-77
2021/11/04 08:19:17;;;;;;;;;27.67;27.00;;;;;-149.00;100.00;66333.84;5158959;27;8845;-77
2021/11/04 08:21:42;;;;;;;;;34.75;31.75;;;;;-149.00;100.00;66333.84;5160246;27;8890;-77
2021/11/04 08:24:08;;;;;;;;;33.25;30.75;;;;;-149.00;100.00;66333.84;5158553;27;9678;-77
2021/11/04 08:26:33;;;;;;;;;26.25;26.25;;;;;-149.00;100.00;66333.84;5158778;27;8850;-77
2021/11/04 08:29:01;;;;;;;;;30.00;29.00;;;;;-149.00;100.00;66333.84;5160171;27;9659;-77
2021/11/04 08:31:27;;;;;;;;;29.67;28.33;;;;;-149.00;100.00;66333.84;5141446;27;8777;-78
2021/11/04 08:33:52;;;;;;;;;21.33;19.67;;;;;-149.00;100.00;66333.84;5139251;27;9274;-77
2021/11/04 08:36:17;;;;;;;;;25.67;22.67;;;;;-149.00;100.00;66333.84;5139157;27;8776;-76
2021/11/04 08:38:43;;;;;;;;;19.67;19.67;;;;;-149.00;100.00;66333.84;5137639;27;8816;-75
2021/11/04 08:41:08;;;;;;;;;24.00;22.00;;;;;-149.00;100.00;66333.84;5137728;27;8873;-75
2021/11/04 08:43:33;;;;;;;;;23.67;21.33;;;;;-149.00;100.00;66333.84;5137600;27;8824;-78
2021/11/04 08:45:59;;;;;;;;;24.67;23.67;;;;;-149.00;100.00;66333.84;5139241;27;8803;-78
2021/11/04 08:48:24;;;;;;;;;24.67;21.00;;;;;-149.00;100.00;66333.84;5137775;27;8792;-78
2021/11/04 08:50:50;;;;;;;;;23.33;22.33;;;;;-149.00;100.00;66333.84;5138575;27;8795;-78
2021/11/04 08:53:15;;;;;;;;;22.67;22.00;;;;;-149.00;100.00;66333.84;5137379;27;9004;-78
2021/11/04 08:55:42;;;;;;;;;21.67;21.67;;;;;-149.00;100.00;66333.84;5138601;27;8780;-77
2021/11/04 08:58:08;;;;;;;;;24.67;23.00;;;;;-149.00;100.00;66333.84;5138940;27;8772;-78
2021/11/04 09:00:34;;;;;;;;;22.00;21.67;;;;;-149.00;100.00;66333.84;5139001;27;9159;-78
2021/11/04 09:03:00;;;;;;;;;25.00;22.67;;;;;-149.00;100.00;66333.84;5138365;27;9153;-78
2021/11/04 09:05:25;;;;;;;;;23.33;21.00;;;;;-149.00;100.00;66333.84;5138681;27;8809;-78
2021/11/04 09:07:51;;;;;;;;;22.00;21.33;;;;;-149.00;100.00;66333.84;5138177;27;8796;-78
2021/11/04 09:10:20;;;;;;;;;23.00;22.00;;;;;-149.00;100.00;66333.84;5137105;27;8830;-80
2021/11/04 09:12:46;;;;;;;;;19.67;18.33;;;;;-149.00;100.00;66333.84;5138531;27;8768;-80
2021/11/04 09:15:12;;;;;;;;;22.00;20.00;;;;;-149.00;100.00;66333.84;5138547;27;8891;-80
2021/11/04 09:17:38;;;;;;;;;15.67;15.67;;;;;-149.00;100.00;66333.84;5138417;27;8765;-80
2021/11/04 09:20:05;;;;;;;;;14.25;14.25;;;;;-149.00;100.00;66333.84;5138425;27;9015;-80
2021/11/04 09:22:32;;;;;;;;;15.25;13.75;;;;;-149.00;100.00;66333.84;5136477;27;9728;-80
2021/11/04 09:24:57;;;;;;;;;15.50;14.25;;;;;-149.00;100.00;66333.84;5136786;27;8826;-80
2021/11/04 09:27:22;;;;;;;;;16.33;16.00;;;;;-149.00;100.00;66333.84;5136911;27;8789;-80
2021/11/04 09:29:49;;;;;;;;;13.33;13.33;;;;;-149.00;100.00;66333.84;5142594;27;8790;-79
2021/11/04 09:32:14;;;;;;;;;16.25;14.25;;;;;-149.00;100.00;66333.84;5157597;27;8792;-79
2021/11/04 09:34:40;;;;;;;;;16.00;15.33;;;;;-149.00;100.00;66333.84;5159189;27;8800;-79
2021/11/04 09:37:06;;;;;;;;;24.67;23.00;;;;;-149.00;100.00;66333.84;5158373;27;8790;-78
2021/11/04 09:39:33;;;;;;;;;17.75;16.50;;;;;-149.00;100.00;66333.84;5157392;27;8786;-78
2021/11/04 09:41:59;;;;;;;;;18.00;16.50;;;;;-149.00;100.00;66333.84;5158838;27;8762;-78
2021/11/04 09:44:24;;;;;;;;;17.67;16.00;;;;;-149.00;100.00;66333.84;5158665;27;8832;-79
2021/11/04 09:46:50;;;;;;;;;16.67;16.67;;;;;-149.00;100.00;66333.84;5158728;27;8790;-80
2021/11/04 09:49:15;;;;;;;;;14.33;13.00;;;;;-149.00;100.00;66333.84;5158563;27;8858;-79
2021/11/04 09:51:41;;;;;;;;;15.67;14.67;;;;;-149.00;100.00;66333.84;5158638;27;8880;-78
2021/11/04 09:54:07;;;;;;;;;17.00;17.00;;;;;-149.00;100.00;66333.84;5158459;27;8812;-79
2021/11/04 09:56:34;;;;;;;;;15.33;14.00;;;;;-149.00;100.00;66333.84;5159059;27;8848;-76
2021/11/04 09:59:00;;;;;;;;;19.00;16.75;;;;;-149.00;100.00;66333.84;5158753;27;8797;-76
2021/11/04 10:01:28;;;;;;;;;13.00;11.67;;;;;-149.00;100.00;66333.84;5157263;27;8798;-75
2021/11/04 10:03:59;;;;;;;;;12.00;12.00;;;;;-149.00;100.00;66333.84;5158871;27;8741;-75
2021/11/04 10:06:33;;;;;;;;;11.25;10.50;;;;;-149.00;100.00;66333.84;5159042;27;9711;-75
2021/11/04 10:09:05;;;;;;;;;8.25;8.25;;;;;-149.00;100.00;66333.84;5158441;27;8750;-75
2021/11/04 10:11:35;;;;;;;;;7.25;6.50;;;;;-149.00;100.00;66333.84;5158445;27;8765;-76
2021/11/04 10:14:07;;;;;;;;;9.25;7.25;;;;;-149.00;100.00;66333.84;5139914;27;9743;-77
2021/11/04 10:16:34;;;;;;;;;8.00;8.00;;;;;-149.00;100.00;66333.84;5137513;27;8769;-77
2021/11/04 10:19:08;;;;;;;;;7.25;7.25;;;;;-149.00;100.00;66333.84;5136717;27;8772;-77
2021/11/04 10:21:36;;;;;;;;;7.00;7.00;;;;;-149.00;100.00;66333.84;5137263;27;8973;-78
2021/11/04 10:24:04;;;;;;;;;10.25;10.25;;;;;-149.00;100.00;66333.84;5137111;27;8900;-78
2021/11/04 10:26:34;;;;;;;;;8.50;7.50;;;;;-149.00;100.00;66333.84;5137332;27;8760;-76
2021/11/04 10:29:07;;;;;;;;;8.25;6.25;;;;;-149.00;100.00;66333.84;5137485;27;8753;-81
2021/11/04 10:31:45;;;;;;;;;7.50;6.50;;;;;-149.00;100.00;66333.84;5155119;27;8742;-78
2021/11/04 10:34:16;;;;;;;;;8.25;6.50;;;;;-149.00;100.00;66333.84;5156472;27;8782;-78
2021/11/04 10:36:44;;;;;;;;;8.00;7.00;;;;;-149.00;100.00;66333.84;5157981;27;8770;-78
2021/11/04 10:39:10;;;;;;;;;8.33;8.33;;;;;-149.00;100.00;66333.84;5157591;27;9688;-79
2021/11/04 10:41:39;;;;;;;;;6.00;6.00;;;;;-149.00;100.00;66333.84;5157958;27;8878;-80
2021/11/04 10:44:06;;;;;;;;;6.50;3.75;;;;;-149.00;100.00;66333.84;5157321;27;8797;-79
2021/11/04 10:46:43;;;;;;;;;6.00;6.00;;;;;-149.00;100.00;66333.84;5157725;27;8758;-80
2021/11/04 10:49:09;;;;;;;;;6.50;4.75;;;;;-149.00;100.00;66333.84;5155640;27;8792;-79
2021/11/04 10:51:35;;;;;;;;;6.00;4.00;;;;;-149.00;100.00;66333.84;5157537;27;8782;-78
2021/11/04 10:54:04;;;;;;;;;5.00;4.00;;;;;-149.00;100.00;66333.84;5156140;27;8805;-79
2021/11/04 10:56:35;;;;;;;;;5.00;4.75;;;;;-149.00;100.00;66333.84;5156203;27;8772;-76
2021/11/04 10:59:11;;;;;;;;;3.00;3.00;;;;;-149.00;100.00;66333.84;5158029;27;8774;-77
2021/11/04 11:01:49;;;;;;;;;5.75;3.25;;;;;-149.00;100.00;66333.84;5160339;27;8770;-78